Time;durP1;ratioP1;P1;durP2;ratioP2;P2;SDS_P1;SDS_P2;PMS_P1;PMS_P2;Temp;Humidity;BMP_temperature;BMP_pressure;BME280_temperature;BME280_humidity;BME280_pressure;Samples;Min_cycle;Max_cycle;Signal;HPM_P1;HPM_P2
2023/04/29 00:01:16;;;;;;;;;12.00;10.25;;;;;8.35;70.04;98216.97;4963334;28;108085;-72
2023/04/29 00:03:48;;;;;;;;;14.25;12.50;;;;;8.25;68.32;98213.75;4970658;28;101430;-74
2023/04/29 00:06:44;;;;;;;;;13.25;12.25;;;;;8.24;67.80;98212.09;4968387;28;101791;-75
2023/04/29 00:09:28;;;;;;;;;14.50;12.50;;;;;8.21;65.22;98217.88;4965413;28;101831;-75
2023/04/29 00:12:20;;;;;;;;;18.00;16.25;;;;;8.18;66.58;98220.97;4956022;28;107639;-75
2023/04/29 00:15:05;;;;;;;;;18.75;13.25;;;;;8.23;68.86;98221.22;4964831;28;101570;-72
2023/04/29 00:17:47;;;;;;;;;17.50;13.25;;;;;8.24;69.98;98222.88;4956877;28;101872;-74
2023/04/29 00:20:14;;;;;;;;;9.25;8.00;;;;;8.23;66.37;98222.03;4978663;28;101650;-75
2023/04/29 00:22:41;;;;;;;;;9.75;9.00;;;;;8.23;66.16;98234.69;4966307;28;103397;-75
2023/04/29 00:25:08;;;;;;;;;9.00;7.75;;;;;8.31;65.19;98213.00;4964988;28;101571;-76
2023/04/29 00:27:35;;;;;;;;;14.00;10.75;;;;;8.21;67.25;98212.47;4963783;27;101438;-75
2023/04/29 00:30:02;;;;;;;;;8.50;8.50;;;;;8.25;69.92;98216.44;4971750;28;101894;-74
2023/04/29 00:32:29;;;;;;;;;10.75;10.25;;;;;8.11;67.57;98201.19;4962795;27;103566;-75
2023/04/29 00:34:56;;;;;;;;;11.00;9.75;;;;;8.02;74.17;98209.44;4970815;27;102257;-73
2023/04/29 00:37:23;;;;;;;;;14.25;11.50;;;;;7.91;74.62;98207.28;4979983;28;101650;-73
2023/04/29 00:39:50;;;;;;;;;15.75;13.00;;;;;7.93;71.20;98210.59;4959087;28;102158;-74
2023/04/29 00:42:18;;;;;;;;;10.25;8.00;;;;;8.00;69.94;98211.50;4950761;28;103427;-75
2023/04/29 00:44:45;;;;;;;;;10.75;9.00;;;;;7.94;69.83;98203.34;4963202;28;104618;-75
2023/04/29 00:47:12;;;;;;;;;11.75;10.50;;;;;7.98;67.79;98210.84;4965270;28;102432;-75
2023/04/29 00:49:39;;;;;;;;;8.00;7.00;;;;;7.94;69.10;98201.50;4967401;28;102392;-76
2023/04/29 00:52:07;;;;;;;;;9.00;9.00;;;;;7.79;70.63;98186.47;4969320;27;103449;-75
2023/04/29 00:54:34;;;;;;;;;12.50;11.00;;;;;7.75;73.37;98201.31;4961680;27;101403;-75
2023/04/29 00:57:02;;;;;;;;;12.00;11.00;;;;;7.63;72.88;98187.56;4969748;28;101569;-75
2023/04/29 00:59:31;;;;;;;;;12.75;10.00;;;;;7.67;73.72;98188.81;4968642;28;101520;-75
2023/04/29 01:02:00;;;;;;;;;18.25;17.00;;;;;7.37;74.72;98181.91;4960119;28;102608;-73
2023/04/29 01:04:38;;;;;;;;;12.25;9.25;;;;;7.52;75.50;98190.78;4969886;27;101760;-74
2023/04/29 01:07:43;;;;;;;;;12.75;12.25;;;;;7.52;75.20;98194.25;4967062;28;102030;-75
2023/04/29 01:10:59;;;;;;;;;16.50;16.00;;;;;7.25;74.76;98130.47;4970803;28;101681;-76
2023/04/29 01:14:03;;;;;;;;;23.25;18.00;;;;;7.52;74.34;98190.78;4949905;28;106800;-75
2023/04/29 01:16:54;;;;;;;;;24.25;23.50;;;;;7.41;77.53;98199.31;4962219;28;103202;-76
2023/04/29 01:19:55;;;;;;;;;27.75;19.25;;;;;7.44;74.39;98191.72;4963758;28;104532;-75
2023/04/29 01:22:22;;;;;;;;;16.00;15.75;;;;;7.47;73.79;98201.25;4965462;27;101662;-75
2023/04/29 01:24:50;;;;;;;;;17.50;17.00;;;;;7.46;74.53;98195.06;4969010;27;103120;-74
2023/04/29 01:27:27;;;;;;;;;14.25;12.25;;;;;7.49;75.40;98202.72;4967809;28;101631;-74
2023/04/29 01:30:06;;;;;;;;;16.25;10.00;;;;;7.53;74.61;98203.16;4963531;28;101812;-75
2023/04/29 01:32:50;;;;;;;;;11.00;9.25;;;;;7.54;74.55;98210.22;4969025;28;101609;-76
2023/04/29 01:35:38;;;;;;;;;9.00;8.00;;;;;7.53;74.78;98204.00;4966170;27;103336;-75
2023/04/29 01:38:30;;;;;;;;;13.50;11.75;;;;;7.49;74.46;98202.72;4966271;28;101542;-75
2023/04/29 01:41:22;;;;;;;;;17.25;15.25;;;;;7.53;76.37;98197.78;4965299;28;101487;-71
2023/04/29 01:43:51;;;;;;;;;15.00;12.25;;;;;7.52;76.74;98191.56;4960106;28;101604;-74
2023/04/29 01:46:19;;;;;;;;;17.00;15.00;;;;;7.48;76.10;98189.47;4965447;28;103399;-74
2023/04/29 01:48:46;;;;;;;;;20.25;17.75;;;;;7.36;76.56;98188.31;4965866;28;101517;-75
2023/04/29 01:51:13;;;;;;;;;15.50;15.00;;;;;7.39;77.57;98185.22;4978644;28;101777;-74
2023/04/29 01:53:40;;;;;;;;;20.00;17.50;;;;;7.44;76.83;98188.19;4961127;28;101731;-74
2023/04/29 01:56:07;;;;;;;;;13.25;11.75;;;;;7.54;77.49;98186.00;4965683;28;103031;-74
2023/04/29 01:58:34;;;;;;;;;12.00;11.50;;;;;7.55;78.52;98179.63;4963525;28;101601;-76
2023/04/29 02:01:01;;;;;;;;;11.25;9.25;;;;;7.56;77.10;98179.41;4964556;28;101521;-75
2023/04/29 02:03:28;;;;;;;;;10.50;9.00;;;;;7.62;76.03;98183.19;4958151;28;101780;-76
2023/04/29 02:05:56;;;;;;;;;15.75;11.25;;;;;7.66;77.11;98192.53;4961104;28;103347;-74
2023/04/29 02:08:23;;;;;;;;;9.75;9.00;;;;;7.65;74.98;98179.28;4960636;28;101635;-75
2023/04/29 02:10:54;;;;;;;;;9.00;7.75;;;;;7.70;74.74;98184.94;4971306;28;101435;-74
2023/04/29 02:13:21;;;;;;;;;14.25;11.75;;;;;7.61;75.96;98179.66;4963084;28;101614;-75
2023/04/29 02:15:48;;;;;;;;;11.75;11.50;;;;;7.61;75.27;98176.97;4961879;28;103256;-74
2023/04/29 02:18:15;;;;;;;;;10.75;9.50;;;;;7.65;75.67;98176.59;4959099;28;101460;-76
2023/04/29 02:20:42;;;;;;;;;10.50;8.75;;;;;7.64;76.97;98165.00;4965079;28;101847;-74
2023/04/29 02:23:09;;;;;;;;;17.25;14.75;;;;;7.56;76.40;98175.91;4969670;28;101584;-74
2023/04/29 02:25:37;;;;;;;;;11.00;10.25;;;;;7.57;77.90;98164.09;4968215;28;103329;-75
2023/04/29 02:28:04;;;;;;;;;15.75;15.75;;;;;7.48;80.01;98158.00;4968443;28;101781;-75
2023/04/29 02:30:30;;;;;;;;;12.25;10.25;;;;;7.56;78.79;98167.84;4959041;28;101846;-75
2023/04/29 02:32:57;;;;;;;;;8.00;8.00;;;;;7.52;77.27;98147.72;4971790;28;102047;-73
2023/04/29 02:35:24;;;;;;;;;8.50;8.00;;;;;7.64;77.92;98170.38;4960701;28;103530;-75
2023/04/29 02:37:51;;;;;;;;;10.75;10.50;;;;;7.63;77.53;98166.88;4961605;28;101693;-76
2023/04/29 02:40:18;;;;;;;;;11.00;10.00;;;;;7.52;76.58;98147.72;4962974;28;101408;-74
2023/04/29 02:42:45;;;;;;;;;7.75;7.75;;;;;7.69;77.03;98159.88;4962023;28;101791;-73
2023/04/29 02:45:12;;;;;;;;;9.75;9.50;;;;;7.72;76.22;98158.66;4967203;28;103340;-74
2023/04/29 02:47:39;;;;;;;;;11.00;10.50;;;;;7.75;76.51;98160.94;4969741;28;101931;-74
2023/04/29 02:50:07;;;;;;;;;10.25;9.00;;;;;7.69;76.56;98153.66;4963368;28;101850;-75
2023/04/29 02:52:33;;;;;;;;;11.00;11.00;;;;;7.69;77.34;98156.34;4964588;28;101633;-74
2023/04/29 02:55:01;;;;;;;;;10.00;10.00;;;;;7.69;77.55;98149.13;4965440;28;103378;-75
2023/04/29 02:57:31;;;;;;;;;7.50;7.50;;;;;7.77;77.68;98164.28;4955641;28;101837;-73
2023/04/29 02:59:58;;;;;;;;;7.25;7.25;;;;;7.79;77.04;98146.91;4967668;28;101578;-73
2023/04/29 03:02:25;;;;;;;;;7.50;7.50;;;;;7.69;76.35;98132.97;4972228;28;101427;-74
2023/04/29 03:04:52;;;;;;;;;6.75;6.75;;;;;7.79;76.29;98152.28;4966109;28;108212;-74
2023/04/29 03:07:19;;;;;;;;;4.00;4.00;;;;;7.82;77.34;98148.41;4964734;28;101679;-75
2023/04/29 03:09:46;;;;;;;;;8.25;8.00;;;;;7.81;76.06;98142.16;4966432;28;101915;-75
2023/04/29 03:12:14;;;;;;;;;8.25;7.25;;;;;7.92;77.40;98148.91;4967388;28;101320;-74
2023/04/29 03:14:41;;;;;;;;;6.50;5.00;;;;;7.95;76.03;98151.19;4963034;28;103352;-75
2023/04/29 03:17:08;;;;;;;;;5.00;4.25;;;;;8.00;75.82;98152.28;4959696;28;102105;-75
2023/04/29 03:19:35;;;;;;;;;6.50;3.75;;;;;7.97;76.12;98131.09;4962030;28;101624;-74
2023/04/29 03:22:02;;;;;;;;;6.50;4.75;;;;;8.11;74.95;98147.34;4965950;28;102032;-75
2023/04/29 03:24:29;;;;;;;;;4.00;3.50;;;;;8.17;75.10;98147.41;4965094;28;103374;-74
2023/04/29 03:26:56;;;;;;;;;4.50;4.50;;;;;8.23;73.79;98137.72;4966232;28;101525;-75
2023/04/29 03:29:23;;;;;;;;;7.75;4.25;;;;;8.28;73.53;98130.72;4960729;28;102123;-75
2023/04/29 03:31:50;;;;;;;;;3.00;3.00;;;;;8.27;73.90;98122.81;4967541;28;101993;-74
2023/04/29 03:34:17;;;;;;;;;3.00;3.00;;;;;8.36;73.80;98125.19;4968098;28;103568;-75
2023/04/29 03:36:44;;;;;;;;;4.00;2.50;;;;;8.47;73.73;98138.09;4964448;28;101910;-75
2023/04/29 03:39:11;;;;;;;;;3.25;3.00;;;;;8.53;73.06;98131.09;4970522;28;101671;-74
2023/04/29 03:41:38;;;;;;;;;3.00;3.00;;;;;8.63;71.65;98130.72;4970007;28;101828;-74
2023/04/29 03:44:05;;;;;;;;;3.00;2.75;;;;;8.70;71.90;98132.41;4964542;28;103393;-75
2023/04/29 03:46:32;;;;;;;;;3.75;3.75;;;;;8.77;71.40;98138.66;4969961;28;101813;-74
2023/04/29 03:48:59;;;;;;;;;7.00;4.00;;;;;8.84;71.45;98134.13;4964651;28;101729;-73
2023/04/29 03:51:27;;;;;;;;;7.50;7.50;;;;;8.91;71.19;98131.47;4974311;28;101746;-74
2023/04/29 03:53:56;;;;;;;;;8.00;7.50;;;;;8.96;70.62;98135.19;4969799;28;107933;-75
2023/04/29 03:56:27;;;;;;;;;9.50;8.00;;;;;9.02;70.45;98128.16;4970465;28;101651;-75
2023/04/29 03:58:54;;;;;;;;;7.00;5.50;;;;;9.10;69.62;98138.78;4964443;28;101658;-75
2023/04/29 04:01:21;;;;;;;;;9.75;8.25;;;;;9.16;69.26;98143.38;4956559;28;102459;-76
2023/04/29 04:03:48;;;;;;;;;6.25;5.00;;;;;9.23;70.61;98149.59;4962993;28;103417;-75
2023/04/29 04:06:15;;;;;;;;;5.00;4.00;;;;;9.27;70.04;98148.19;4970348;28;101461;-75
2023/04/29 04:08:42;;;;;;;;;6.25;6.25;;;;;9.32;70.29;98148.38;4966808;28;106052;-74
2023/04/29 04:11:09;;;;;;;;;5.50;4.25;;;;;9.35;70.30;98144.44;4966067;28;101881;-75
2023/04/29 04:13:36;;;;;;;;;4.75;4.75;;;;;9.34;70.34;98134.69;4960787;28;103347;-75
2023/04/29 04:16:03;;;;;;;;;5.00;4.00;;;;;9.40;70.89;98142.81;4969961;28;101760;-75
2023/04/29 04:18:30;;;;;;;;;7.00;4.50;;;;;9.30;70.52;98106.47;4968599;28;101743;-74
2023/04/29 04:20:57;;;;;;;;;6.50;5.00;;;;;9.43;70.78;98133.47;4968094;28;101847;-74
2023/04/29 04:23:24;;;;;;;;;4.00;4.00;;;;;9.44;71.19;98124.34;4964248;28;107928;-74
2023/04/29 04:25:52;;;;;;;;;5.00;5.00;;;;;9.52;71.85;98126.00;4967958;28;101890;-75
2023/04/29 04:28:19;;;;;;;;;6.00;5.75;;;;;9.48;71.25;98125.59;4962718;28;101299;-74
2023/04/29 04:30:46;;;;;;;;;5.00;5.00;;;;;9.61;71.52;98128.28;4958332;28;101520;-75
2023/04/29 04:33:14;;;;;;;;;7.00;5.75;;;;;9.61;71.78;98125.59;4955180;28;103078;-75
2023/04/29 04:35:42;;;;;;;;;5.75;5.50;;;;;9.57;71.72;98118.94;4968663;28;101743;-75
2023/04/29 04:38:10;;;;;;;;;2.25;2.25;;;;;9.67;71.04;98140.13;4968271;28;101791;-75
2023/04/29 04:40:41;;;;;;;;;9.25;6.50;;;;;9.51;71.80;98111.66;4956857;28;101783;-76
2023/04/29 04:43:08;;;;;;;;;7.50;6.00;;;;;9.70;72.48;98129.75;4958663;27;103308;-74
2023/04/29 04:45:35;;;;;;;;;6.25;5.50;;;;;9.71;71.42;98136.00;4962656;28;101688;-74
2023/04/29 04:48:02;;;;;;;;;5.75;4.00;;;;;9.73;72.30;98134.72;4959794;28;101837;-75
2023/04/29 04:50:29;;;;;;;;;6.25;5.75;;;;;9.74;72.09;98139.09;4963518;28;101761;-74
2023/04/29 04:52:56;;;;;;;;;3.75;3.00;;;;;9.70;72.08;98124.34;4974708;28;107996;-77
2023/04/29 04:55:24;;;;;;;;;4.50;4.00;;;;;9.69;73.40;98111.88;4986744;28;102665;-75
2023/04/29 04:57:51;;;;;;;;;3.00;3.00;;;;;9.81;73.41;98133.72;4963012;28;101618;-76
2023/04/29 05:00:18;;;;;;;;;12.00;9.50;;;;;9.79;72.43;98133.06;4967106;28;103298;-75
2023/04/29 05:02:45;;;;;;;;;9.50;8.75;;;;;9.83;74.13;98127.06;4959729;28;103353;-76
2023/04/29 05:05:12;;;;;;;;;5.00;4.75;;;;;9.87;73.55;98140.97;4972815;28;101816;-74
2023/04/29 05:07:39;;;;;;;;;5.00;5.00;;;;;9.90;73.93;98140.56;4962902;28;101777;-75
2023/04/29 05:10:07;;;;;;;;;4.25;4.00;;;;;9.91;74.40;98125.16;4950526;28;101393;-75
2023/04/29 05:12:34;;;;;;;;;4.75;4.75;;;;;9.92;74.35;98124.97;4959685;28;103883;-73
2023/04/29 05:15:03;;;;;;;;;6.25;5.25;;;;;9.88;76.03;98112.94;4961297;28;101550;-75
2023/04/29 05:17:30;;;;;;;;;5.00;4.00;;;;;10.03;75.01;98126.22;4966951;28;101819;-73
2023/04/29 05:19:57;;;;;;;;;7.50;4.00;;;;;10.06;75.99;98128.50;4975982;28;101695;-75
2023/04/29 05:22:24;;;;;;;;;5.25;5.00;;;;;10.10;76.06;98132.44;4962719;28;107182;-75
2023/04/29 05:24:52;;;;;;;;;4.00;4.00;;;;;10.10;76.14;98130.56;4964455;28;101908;-75
2023/04/29 05:27:19;;;;;;;;;5.25;4.00;;;;;10.12;75.91;98133.06;4970542;28;101794;-76
2023/04/29 05:29:46;;;;;;;;;5.00;3.75;;;;;10.11;76.29;98134.09;4969265;28;101611;-75
2023/04/29 05:32:13;;;;;;;;;4.75;4.75;;;;;10.13;77.81;98134.75;4963497;28;103314;-76
2023/04/29 05:34:40;;;;;;;;;5.00;4.00;;;;;10.09;76.23;98119.97;4958837;28;101637;-75
2023/04/29 05:37:07;;;;;;;;;5.25;4.50;;;;;10.14;76.17;98126.41;4964413;28;101553;-75
2023/04/29 05:39:34;;;;;;;;;4.00;3.25;;;;;10.24;76.17;98136.81;4961263;28;101516;-76
2023/04/29 05:42:02;;;;;;;;;4.00;4.00;;;;;10.19;76.17;98128.50;4969757;28;103361;-75
2023/04/29 05:44:29;;;;;;;;;4.00;3.75;;;;;10.25;76.27;98143.88;4966156;28;102302;-75
2023/04/29 05:46:56;;;;;;;;;2.75;2.75;;;;;10.26;75.99;98145.56;4965362;28;101902;-74
2023/04/29 05:49:23;;;;;;;;;4.00;4.00;;;;;10.22;76.97;98142.41;4969901;28;101783;-75
2023/04/29 05:51:50;;;;;;;;;6.00;4.50;;;;;10.21;76.77;98150.75;4956268;28;103400;-77
2023/04/29 05:54:16;;;;;;;;;6.00;4.00;;;;;10.22;77.00;98153.22;4973115;28;101656;-75
2023/04/29 05:56:43;;;;;;;;;4.25;4.00;;;;;10.21;77.39;98143.50;4971039;28;101724;-75
2023/04/29 05:59:10;;;;;;;;;6.00;3.50;;;;;10.19;77.60;98160.94;4973226;27;101742;-75
2023/04/29 06:01:37;;;;;;;;;3.25;3.00;;;;;10.14;78.10;98153.41;4969221;28;103346;-75
2023/04/29 06:04:05;;;;;;;;;5.75;5.00;;;;;10.17;78.12;98136.00;4966424;28;101513;-74
2023/04/29 06:06:32;;;;;;;;;6.00;5.00;;;;;10.14;78.51;98144.47;4967431;28;101604;-76
2023/04/29 06:08:59;;;;;;;;;8.50;6.25;;;;;10.14;77.93;98148.03;4968866;28;101423;-74
2023/04/29 06:11:26;;;;;;;;;9.25;8.00;;;;;10.13;77.94;98134.75;4969225;28;107296;-75
2023/04/29 06:13:53;;;;;;;;;6.50;5.50;;;;;10.22;78.56;98141.63;4962134;28;101797;-75
2023/04/29 06:16:20;;;;;;;;;5.00;5.00;;;;;10.27;77.94;98139.94;4966039;28;101981;-75
2023/04/29 06:18:48;;;;;;;;;5.00;4.75;;;;;10.30;78.22;98133.28;4968187;28;101442;-76
2023/04/29 06:21:15;;;;;;;;;4.00;4.00;;;;;10.43;78.04;98135.97;4956365;28;105815;-75
2023/04/29 06:23:42;;;;;;;;;4.75;4.00;;;;;10.45;77.78;98139.25;4964010;28;101862;-75
2023/04/29 06:26:09;;;;;;;;;3.75;3.75;;;;;10.50;78.66;98144.88;4970541;28;101579;-75
2023/04/29 06:28:36;;;;;;;;;6.25;6.00;;;;;10.47;78.34;98139.91;4964968;28;101767;-76
2023/04/29 06:31:03;;;;;;;;;4.50;4.00;;;;;10.49;78.77;98140.50;4965013;28;103330;-75
2023/04/29 06:33:30;;;;;;;;;5.00;4.50;;;;;10.44;79.00;98125.97;4957945;28;106720;-71
2023/04/29 06:35:57;;;;;;;;;4.75;3.75;;;;;10.60;79.14;98139.84;4964149;28;101895;-75
2023/04/29 06:38:24;;;;;;;;;3.50;3.50;;;;;10.61;79.32;98141.53;4961090;28;101578;-75
2023/04/29 06:40:50;;;;;;;;;5.00;4.00;;;;;10.66;78.83;98135.47;4955775;28;103304;-75
2023/04/29 06:43:17;;;;;;;;;11.50;9.75;;;;;10.61;79.03;98138.81;4963852;28;101627;-74
2023/04/29 06:45:45;;;;;;;;;6.00;6.00;;;;;10.55;78.97;98131.56;4969818;28;101698;-75
2023/04/29 06:48:12;;;;;;;;;10.25;8.50;;;;;10.58;79.09;98133.81;4965574;28;101664;-76
2023/04/29 06:50:48;;;;;;;;;17.25;13.00;;;;;10.64;79.73;98141.09;4956787;28;103386;-76
2023/04/29 06:53:15;;;;;;;;;21.75;19.50;;;;;10.72;79.57;98146.25;4960980;28;101750;-76
2023/04/29 06:55:42;;;;;;;;;21.00;17.75;;;;;10.91;79.40;98141.00;4967351;28;101421;-75
2023/04/29 06:58:09;;;;;;;;;17.25;13.00;;;;;11.04;78.96;98144.47;4965942;28;101521;-75
2023/04/29 07:00:36;;;;;;;;;10.75;10.75;;;;;11.02;78.67;98121.41;4968409;27;103420;-76
2023/04/29 07:03:03;;;;;;;;;15.25;14.25;;;;;11.17;77.95;98143.56;4962561;28;101570;-75
2023/04/29 07:05:30;;;;;;;;;19.50;17.00;;;;;11.28;77.84;98140.19;4963748;28;101622;-75
2023/04/29 07:07:57;;;;;;;;;20.00;17.75;;;;;11.32;77.34;98138.72;4958572;28;101650;-75
2023/04/29 07:10:25;;;;;;;;;27.50;21.50;;;;;11.30;77.45;98132.69;4951469;28;103472;-74
2023/04/29 07:12:52;;;;;;;;;20.00;16.00;;;;;11.28;77.11;98140.19;4960263;28;102060;-76
2023/04/29 07:15:19;;;;;;;;;14.25;13.25;;;;;11.15;77.44;98114.03;4965217;28;101656;-74
2023/04/29 07:17:46;;;;;;;;;13.25;12.00;;;;;11.34;76.98;98136.63;4956910;28;101487;-75
2023/04/29 07:20:13;;;;;;;;;8.25;8.00;;;;;11.39;77.70;98141.41;4963877;28;103497;-75
2023/04/29 07:22:40;;;;;;;;;11.25;9.00;;;;;11.46;77.19;98144.88;4956664;28;101820;-75
2023/04/29 07:25:07;;;;;;;;;6.50;6.00;;;;;11.44;77.25;98136.97;4966056;28;101687;-75
2023/04/29 07:27:34;;;;;;;;;6.50;4.75;;;;;11.45;76.67;98148.63;4953752;28;101594;-75
2023/04/29 07:30:02;;;;;;;;;3.50;3.50;;;;;11.53;76.41;98160.03;4966117;28;103551;-74
2023/04/29 07:32:32;;;;;;;;;3.25;3.00;;;;;11.56;77.38;98154.19;4952521;28;101355;-75
2023/04/29 07:34:59;;;;;;;;;4.00;3.00;;;;;11.59;78.70;98142.91;4957862;27;102915;-75
2023/04/29 07:37:26;;;;;;;;;3.50;3.50;;;;;11.57;79.72;98155.03;4958117;28;102110;-76
2023/04/29 07:39:53;;;;;;;;;2.75;2.50;;;;;11.49;80.35;98150.69;4958760;28;103410;-74
2023/04/29 07:42:20;;;;;;;;;3.50;3.50;;;;;11.45;81.69;98144.03;4960286;28;101820;-75
2023/04/29 07:44:47;;;;;;;;;4.00;4.00;;;;;11.44;81.93;98139.69;4957907;27;103082;-75
2023/04/29 07:47:14;;;;;;;;;4.75;4.75;;;;;11.42;82.53;98149.91;4957830;28;101637;-75
2023/04/29 07:49:41;;;;;;;;;4.00;4.00;;;;;11.46;83.27;98153.00;4967985;28;103363;-74
2023/04/29 07:52:08;;;;;;;;;5.00;4.75;;;;;11.46;83.26;98153.84;4960235;28;101644;-75
2023/04/29 07:54:35;;;;;;;;;3.00;3.00;;;;;11.55;82.52;98162.53;4966733;28;101737;-74
2023/04/29 07:57:03;;;;;;;;;4.25;3.00;;;;;11.56;83.47;98156.91;4956730;28;101780;-74
2023/04/29 07:59:31;;;;;;;;;3.25;3.00;;;;;11.70;84.05;98170.34;4964230;28;103322;-76
2023/04/29 08:01:58;;;;;;;;;3.00;2.25;;;;;11.71;83.54;98155.78;4958043;28;101497;-76
2023/04/29 08:04:25;;;;;;;;;3.75;3.75;;;;;11.60;82.81;98155.41;4952725;28;102197;-75
2023/04/29 08:06:53;;;;;;;;;5.75;4.75;;;;;11.65;83.59;98162.88;4964348;28;101817;-75
2023/04/29 08:09:20;;;;;;;;;3.50;3.00;;;;;11.72;83.41;98158.28;4961876;28;103302;-75
2023/04/29 08:11:47;;;;;;;;;6.00;5.50;;;;;11.67;81.90;98165.34;4966607;28;101959;-74
2023/04/29 08:14:14;;;;;;;;;2.00;2.00;;;;;11.69;82.63;98168.69;4965065;28;101714;-75
2023/04/29 08:16:40;;;;;;;;;11.50;8.50;;;;;11.72;83.66;98162.81;4968195;28;101778;-75
2023/04/29 08:19:08;;;;;;;;;8.75;6.00;;;;;11.68;83.55;98157.03;4970611;27;103363;-75
2023/04/29 08:21:35;;;;;;;;;8.50;6.00;;;;;11.89;83.73;98153.13;4967914;28;101898;-74
2023/04/29 08:24:02;;;;;;;;;7.75;6.00;;;;;11.91;82.40;98138.34;4970609;28;101855;-74
2023/04/29 08:26:29;;;;;;;;;6.25;4.75;;;;;12.27;80.52;98159.28;4972734;27;102394;-75
2023/04/29 08:28:56;;;;;;;;;6.00;5.75;;;;;12.32;81.04;98164.88;4956642;28;103428;-76
2023/04/29 08:31:23;;;;;;;;;7.25;7.00;;;;;12.22;79.24;98155.59;4970095;28;101827;-75
2023/04/29 08:33:50;;;;;;;;;7.25;6.50;;;;;12.16;80.93;98157.28;4960910;28;101511;-75
2023/04/29 08:36:17;;;;;;;;;5.50;5.50;;;;;12.22;80.21;98145.56;4970925;27;101849;-75
2023/04/29 08:38:44;;;;;;;;;5.00;4.75;;;;;12.30;81.25;98153.41;4963311;27;103339;-74
2023/04/29 08:41:13;;;;;;;;;4.75;3.00;;;;;12.44;80.92;98146.81;4959215;28;102594;-75
2023/04/29 08:43:40;;;;;;;;;9.00;7.00;;;;;12.31;80.43;98110.88;4962391;28;102921;-75
2023/04/29 08:46:08;;;;;;;;;6.00;6.00;;;;;12.73;80.34;98137.13;4964119;28;101608;-75
2023/04/29 08:48:36;;;;;;;;;7.00;6.00;;;;;12.98;78.80;98134.31;4964956;28;103522;-75
2023/04/29 08:51:04;;;;;;;;;7.00;5.50;;;;;13.24;78.20;98131.28;4965769;28;101531;-75
2023/04/29 08:53:31;;;;;;;;;6.25;6.00;;;;;13.56;77.24;98128.34;4973935;28;102312;-76
2023/04/29 08:56:08;;;;;;;;;13.00;11.00;;;;;13.73;77.36;98113.84;4960648;28;101854;-76
2023/04/29 08:58:38;;;;;;;;;15.00;13.00;;;;;13.99;76.78;98126.22;4969952;28;107986;-75
2023/04/29 09:01:08;;;;;;;;;10.75;10.25;;;;;14.36;77.35;98128.75;4969900;28;101735;-74
2023/04/29 09:03:53;;;;;;;;;7.00;7.00;;;;;14.73;71.71;98128.22;4964629;28;101407;-74
2023/04/29 09:06:21;;;;;;;;;11.75;10.50;;;;;14.63;70.68;98135.34;4958197;28;101695;-76
2023/04/29 09:08:48;;;;;;;;;9.00;8.75;;;;;14.69;72.17;98134.38;4962777;28;104371;-75
2023/04/29 09:11:16;;;;;;;;;8.50;7.00;;;;;14.81;70.48;98127.06;4961966;28;101513;-75
2023/04/29 09:13:42;;;;;;;;;21.00;14.75;;;;;14.49;71.18;98121.19;4959869;28;101547;-75
2023/04/29 09:16:11;;;;;;;;;12.50;10.00;;;;;15.00;73.03;98114.91;4977439;28;101571;-74
2023/04/29 09:18:47;;;;;;;;;5.75;5.75;;;;;15.79;67.17;98135.00;4962320;27;106304;-76
2023/04/29 09:21:32;;;;;;;;;7.25;7.00;;;;;16.06;66.79;98125.09;4965523;28;101723;-76
2023/04/29 09:24:01;;;;;;;;;13.50;12.25;;;;;16.04;67.15;98121.78;4966340;28;101555;-76
2023/04/29 09:26:46;;;;;;;;;11.50;10.00;;;;;16.01;65.92;98133.19;4954950;28;101509;-76
2023/04/29 09:29:17;;;;;;;;;9.00;7.75;;;;;15.92;65.55;98128.41;4967851;28;107909;-75
2023/04/29 09:31:44;;;;;;;;;6.00;5.00;;;;;16.13;65.91;98129.56;4964311;27;101947;-75
2023/04/29 09:34:13;;;;;;;;;5.75;5.25;;;;;16.44;62.63;98121.59;4967742;28;101684;-77
2023/04/29 09:36:48;;;;;;;;;7.00;7.00;;;;;16.57;61.30;98125.88;4968956;28;101516;-75
2023/04/29 09:39:17;;;;;;;;;8.33;7.00;;;;;16.47;63.09;98123.84;4963167;28;103343;-75
2023/04/29 09:41:53;;;;;;;;;6.25;6.25;;;;;16.58;61.89;98122.09;4965130;28;101541;-75
2023/04/29 09:44:26;;;;;;;;;4.00;4.00;;;;;16.75;63.30;98122.88;4962577;28;101995;-75
2023/04/29 09:47:13;;;;;;;;;4.00;4.00;;;;;16.79;62.52;98124.06;4969655;28;101882;-75
2023/04/29 09:49:44;;;;;;;;;6.67;4.00;;;;;17.07;60.05;98114.00;4970890;28;107896;-76
2023/04/29 09:52:13;;;;;;;;;4.67;3.67;;;;;17.27;58.62;98106.06;4954212;28;101752;-76
2023/04/29 09:54:42;;;;;;;;;5.33;5.00;;;;;17.09;58.14;98099.03;4968930;28;101574;-75
2023/04/29 09:57:11;;;;;;;;;5.00;4.67;;;;;17.13;56.41;98118.47;4963078;28;101527;-74
2023/04/29 09:59:40;;;;;;;;;4.67;4.67;;;;;17.17;58.16;98112.22;4959885;28;103359;-76
2023/04/29 10:02:17;;;;;;;;;5.67;5.67;;;;;17.09;56.84;98111.84;4966270;28;101644;-76
2023/04/29 10:04:52;;;;;;;;;6.33;6.00;;;;;17.04;60.11;98115.34;4966205;28;101514;-76
2023/04/29 10:07:21;;;;;;;;;7.67;7.67;;;;;17.08;58.93;98110.19;4957749;28;101366;-76
2023/04/29 10:09:48;;;;;;;;;5.67;5.00;;;;;17.22;57.80;98115.03;4966395;28;102622;-75
2023/04/29 10:12:17;;;;;;;;;4.33;4.33;;;;;17.40;57.50;98111.13;4963221;27;101831;-76
2023/04/29 10:14:54;;;;;;;;;4.33;4.00;;;;;17.52;58.82;98122.72;4970800;28;101762;-76
2023/04/29 10:17:35;;;;;;;;;5.33;4.33;;;;;17.28;57.35;98113.19;4966786;28;101549;-76
2023/04/29 10:20:04;;;;;;;;;7.00;7.00;;;;;17.14;59.03;98114.66;4954219;28;108336;-75
2023/04/29 10:22:47;;;;;;;;;4.00;4.00;;;;;17.29;57.79;98106.66;4961530;28;101691;-74
2023/04/29 10:25:16;;;;;;;;;4.00;4.00;;;;;17.24;57.79;98112.06;4970135;28;101675;-76
2023/04/29 10:27:44;;;;;;;;;4.00;3.67;;;;;17.25;60.34;98111.78;4964824;28;101984;-75
2023/04/29 10:30:13;;;;;;;;;9.67;9.67;;;;;16.83;59.83;98117.00;4964597;28;103513;-77
2023/04/29 10:32:40;;;;;;;;;10.00;8.00;;;;;16.41;62.13;98105.72;4961769;28;102198;-75
2023/04/29 10:35:19;;;;;;;;;6.00;5.00;;;;;16.40;62.37;98114.16;4961279;28;101603;-76
2023/04/29 10:37:48;;;;;;;;;5.33;5.00;;;;;16.34;61.97;98115.19;4941906;28;102671;-77
2023/04/29 10:40:23;;;;;;;;;3.33;3.33;;;;;16.24;62.94;98123.19;4963940;28;103512;-75
2023/04/29 10:42:52;;;;;;;;;3.67;3.67;;;;;16.14;62.81;98112.13;4969652;28;101462;-75
2023/04/29 10:45:21;;;;;;;;;11.00;8.00;;;;;16.03;62.60;98111.94;4966831;28;101965;-74
2023/04/29 10:48:09;;;;;;;;;6.00;5.50;;;;;16.02;64.50;98110.31;4953940;28;101655;-76
2023/04/29 10:50:48;;;;;;;;;5.00;5.00;;;;;16.04;63.58;98099.97;4967264;28;109344;-74
2023/04/29 10:53:19;;;;;;;;;5.25;4.50;;;;;15.99;64.18;98108.06;4970323;28;101677;-74
2023/04/29 10:55:47;;;;;;;;;7.50;7.50;;;;;15.85;64.29;98109.47;4966170;27;102458;-74
2023/04/29 10:58:37;;;;;;;;;8.50;7.00;;;;;15.80;64.68;98109.41;4963334;28;101847;-74
2023/04/29 11:01:06;;;;;;;;;5.25;5.00;;;;;15.77;64.75;98106.31;4958065;28;107772;-75
2023/04/29 11:03:58;;;;;;;;;7.50;6.00;;;;;15.67;64.40;98096.06;4969382;28;105824;-72
2023/04/29 11:06:40;;;;;;;;;5.00;5.00;;;;;15.68;63.46;98100.44;4966222;28;101619;-75
2023/04/29 11:09:13;;;;;;;;;7.00;5.50;;;;;15.65;63.50;98100.94;4981887;28;101704;-74
2023/04/29 11:11:46;;;;;;;;;4.00;4.00;;;;;15.60;62.41;98111.75;4966839;28;103405;-75
2023/04/29 11:14:14;;;;;;;;;4.00;3.00;;;;;15.58;62.63;98111.16;4964727;28;101616;-74
2023/04/29 11:16:51;;;;;;;;;3.00;3.00;;;;;15.56;63.04;98113.31;4970840;28;101499;-74
2023/04/29 11:19:18;;;;;;;;;3.00;3.00;;;;;15.56;63.23;98108.69;4967154;28;101901;-75
2023/04/29 11:21:46;;;;;;;;;5.75;5.00;;;;;15.48;63.25;98097.34;4966746;28;103245;-76
2023/04/29 11:24:16;;;;;;;;;5.75;5.00;;;;;15.45;63.84;98103.25;4967659;28;101628;-74
2023/04/29 11:26:45;;;;;;;;;4.25;2.75;;;;;15.40;63.93;98114.88;4969292;28;101782;-74
2023/04/29 11:29:13;;;;;;;;;6.25;6.00;;;;;15.31;65.23;98108.16;4970567;28;101686;-75
2023/04/29 11:31:39;;;;;;;;;4.75;4.75;;;;;15.37;64.65;98099.03;4970150;28;103341;-75
2023/04/29 11:34:07;;;;;;;;;5.25;5.00;;;;;15.36;63.13;98099.25;4964870;28;101504;-74
2023/04/29 11:36:35;;;;;;;;;5.00;4.25;;;;;15.35;62.53;98101.19;4971134;28;101709;-73